Time;durP1;ratioP1;P1;durP2;ratioP2;P2;SDS_P1;SDS_P2;PMS_P1;PMS_P2;Temp;Humidity;BMP_temperature;BMP_pressure;BME280_temperature;BME280_humidity;BME280_pressure;Samples;Min_cycle;Max_cycle;Signal;HPM_P1;HPM_P2
2021/09/07 00:00:50;;;;;;;3.60;3.03;;;;;;;12.16;89.73;95953.56;5086063;28;20101;-67
2021/09/07 00:03:17;;;;;;;3.33;2.40;;;;;;;12.17;90.04;95955.16;5100976;28;20046;-67
2021/09/07 00:05:44;;;;;;;3.25;2.40;;;;;;;12.16;90.14;95953.56;5105955;28;20050;-67
2021/09/07 00:08:11;;;;;;;5.38;2.58;;;;;;;12.14;91.27;95950.38;5085053;28;20043;-67
2021/09/07 00:10:37;;;;;;;5.07;2.92;;;;;;;12.14;91.12;95945.94;5086193;28;20044;-68
2021/09/07 00:13:04;;;;;;;3.03;2.05;;;;;;;12.13;92.23;95943.56;5097848;28;20100;-67
2021/09/07 00:15:35;;;;;;;3.58;2.38;;;;;;;12.13;92.49;95936.50;5106200;28;20051;-67
2021/09/07 00:18:03;;;;;;;3.35;2.15;;;;;;;12.10;94.46;95938.75;5106080;28;20490;-67
2021/09/07 00:20:30;;;;;;;4.32;2.33;;;;;;;12.14;93.36;95937.31;5086214;28;20040;-67
2021/09/07 00:22:57;;;;;;;5.78;2.50;;;;;;;12.13;92.99;95938.31;5091286;28;20097;-67
2021/09/07 00:25:24;;;;;;;3.72;2.90;;;;;;;12.09;94.20;95942.38;5084819;28;20048;-67
2021/09/07 00:27:50;;;;;;;4.03;2.55;;;;;;;12.01;94.91;95941.63;5083379;28;20048;-67
2021/09/07 00:30:18;;;;;;;6.35;2.97;;;;;;;11.98;95.55;95938.66;5085916;28;20044;-67
2021/09/07 00:32:44;;;;;;;3.88;2.22;;;;;;;12.00;95.66;95939.22;5098319;28;20477;-67
2021/09/07 00:35:11;;;;;;;3.53;2.35;;;;;;;11.96;95.86;95944.06;5105567;28;20039;-66
2021/09/07 00:37:39;;;;;;;2.78;2.33;;;;;;;11.89;96.46;95932.84;5092777;28;20041;-67
2021/09/07 00:40:09;;;;;;;4.53;2.22;;;;;;;12.02;96.32;95951.06;5099552;28;20043;-67
2021/09/07 00:42:36;;;;;;;3.65;2.10;;;;;;;12.03;95.88;95950.06;5105988;28;20463;-67
2021/09/07 00:45:05;;;;;;;3.65;2.47;;;;;;;11.98;95.96;95931.59;5105560;28;20073;-67
2021/09/07 00:47:33;;;;;;;4.20;2.40;;;;;;;12.09;96.07;95952.84;5105656;28;20035;-67
2021/09/07 00:50:00;;;;;;;4.65;2.70;;;;;;;12.11;95.74;95956.03;5105672;28;20040;-67
2021/09/07 00:52:27;;;;;;;4.13;2.70;;;;;;;12.09;95.18;95952.84;5098502;28;20417;-67
2021/09/07 00:54:56;;;;;;;5.10;2.38;;;;;;;12.00;95.75;95945.25;5109413;27;20035;-67
2021/09/07 00:57:27;;;;;;;3.30;1.92;;;;;;;12.05;95.32;95953.25;5103046;28;20048;-67
2021/09/07 00:59:54;;;;;;;3.95;2.35;;;;;;;12.02;95.80;95942.44;5089332;28;20085;-67
2021/09/07 01:02:22;;;;;;;3.70;2.50;;;;;;;11.93;96.63;95944.50;5092607;28;20040;-67
2021/09/07 01:04:49;;;;;;;3.45;2.28;;;;;;;11.83;97.15;95934.50;5109868;28;20463;-67
2021/09/07 01:07:17;;;;;;;3.08;2.15;;;;;;;11.89;97.59;95938.06;5090109;28;20052;-67
2021/09/07 01:09:45;;;;;;;3.15;2.22;;;;;;;11.88;96.63;95931.25;5088376;28;20058;-67
2021/09/07 01:12:12;;;;;;;5.05;2.47;;;;;;;11.75;97.17;95915.69;5089536;28;20089;-67
2021/09/07 01:14:40;;;;;;;3.95;2.90;;;;;;;11.88;96.41;95931.25;5089604;28;20123;-67
2021/09/07 01:17:15;;;;;;;2.80;1.90;;;;;;;11.84;97.10;95935.28;5089395;28;20047;-67
2021/09/07 01:19:45;;;;;;;4.40;3.28;;;;;;;11.80;97.30;95939.34;5089642;28;20054;-67
2021/09/07 01:22:14;;;;;;;3.63;2.58;;;;;;;11.74;97.44;95929.72;5098521;28;20520;-67
2021/09/07 01:24:40;;;;;;;3.80;2.53;;;;;;;11.73;97.52;95933.38;5088431;28;20471;-66
2021/09/07 01:27:08;;;;;;;4.18;3.25;;;;;;;11.76;96.57;95930.34;5089192;28;20047;-67
2021/09/07 01:29:37;;;;;;;3.63;2.65;;;;;;;11.86;95.64;95933.25;5092914;28;20048;-67
2021/09/07 01:32:06;;;;;;;5.18;2.67;;;;;;;11.85;94.86;95936.91;5107873;28;20044;-67
2021/09/07 01:34:33;;;;;;;3.95;3.00;;;;;;;11.82;94.76;95943.31;5108257;28;20044;-67
2021/09/07 01:37:00;;;;;;;5.65;2.92;;;;;;;11.70;95.72;95929.34;5105044;28;20080;-67
2021/09/07 01:39:27;;;;;;;3.78;2.33;;;;;;;11.73;95.49;95933.38;5100957;28;20085;-66
2021/09/07 01:41:55;;;;;;;4.57;2.75;;;;;;;11.60;96.21;95929.81;5088854;28;20032;-67
2021/09/07 01:44:22;;;;;;;3.15;2.28;;;;;;;11.64;96.26;95933.59;5089116;28;20550;-67
2021/09/07 01:46:50;;;;;;;4.63;3.08;;;;;;;11.67;95.64;95935.81;5088686;28;20040;-66
2021/09/07 01:49:17;;;;;;;4.20;2.75;;;;;;;11.71;94.56;95928.34;5088953;28;20043;-67
2021/09/07 01:51:45;;;;;;;4.18;2.58;;;;;;;11.73;94.33;95928.16;5106450;28;20511;-67
2021/09/07 01:54:13;;;;;;;4.40;2.90;;;;;;;11.62;94.64;95924.41;5088785;28;20521;-66
2021/09/07 01:56:41;;;;;;;7.50;2.85;;;;;;;11.60;94.95;95935.03;5088424;28;20540;-67
2021/09/07 01:59:09;;;;;;;3.25;2.33;;;;;;;11.48;95.25;95926.28;5107095;28;20036;-67
2021/09/07 02:01:37;;;;;;;4.80;3.25;;;;;;;11.34;95.65;95916.91;5108498;28;20043;-67
2021/09/07 02:04:04;;;;;;;3.17;2.30;;;;;;;11.24;96.29;95931.22;5107250;28;20447;-67
2021/09/07 02:06:32;;;;;;;4.63;2.78;;;;;;;11.24;96.39;95926.00;5103874;28;20043;-67
2021/09/07 02:09:00;;;;;;;3.60;2.90;;;;;;;11.26;96.08;95923.19;5090662;28;20123;-67
2021/09/07 02:11:27;;;;;;;6.05;2.78;;;;;;;11.13;94.86;95905.78;5108534;27;20040;-66
2021/09/07 02:13:54;;;;;;;5.45;2.60;;;;;;;11.26;93.91;95923.97;5107072;28;20172;-67
2021/09/07 02:16:21;;;;;;;3.15;2.30;;;;;;;11.21;93.82;95921.19;5108499;28;20109;-67
2021/09/07 02:18:48;;;;;;;4.82;3.03;;;;;;;11.20;93.49;95913.56;5086856;28;20052;-67
2021/09/07 02:21:15;;;;;;;4.75;2.90;;;;;;;11.15;93.79;95922.03;5102566;28;20581;-67
2021/09/07 02:23:43;;;;;;;4.22;2.72;;;;;;;11.17;93.48;95919.22;5095975;28;20097;-67
2021/09/07 02:26:10;;;;;;;5.60;2.70;;;;;;;11.17;93.40;95919.22;5087748;28;20117;-67
2021/09/07 02:28:37;;;;;;;5.90;3.30;;;;;;;11.17;92.64;95920.00;5104760;28;20047;-67
2021/09/07 02:31:04;;;;;;;3.40;2.35;;;;;;;11.17;92.08;95920.00;5108270;28;20048;-67
2021/09/07 02:33:33;;;;;;;5.82;2.85;;;;;;;11.15;92.24;95910.81;5094408;28;20513;-68
2021/09/07 02:35:59;;;;;;;4.95;2.72;;;;;;;11.12;92.43;95916.44;5087878;28;20090;-67
2021/09/07 02:38:30;;;;;;;3.42;2.35;;;;;;;11.09;91.98;95908.03;5088568;28;20032;-67
2021/09/07 02:41:00;;;;;;;6.35;3.53;;;;;;;11.06;91.38;95905.81;5108595;28;20047;-68
2021/09/07 02:43:27;;;;;;;4.10;2.88;;;;;;;11.01;92.07;95910.06;5108103;28;20047;-67
2021/09/07 02:45:54;;;;;;;6.43;2.50;;;;;;;10.92;92.75;95919.91;5108114;28;20485;-67
2021/09/07 02:48:24;;;;;;;5.53;2.75;;;;;;;10.87;93.97;95925.72;5107345;28;20118;-67
2021/09/07 02:50:51;;;;;;;5.43;3.10;;;;;;;10.81;94.29;95923.94;5098112;28;20071;-68
2021/09/07 02:53:18;;;;;;;5.30;3.10;;;;;;;10.74;94.96;95920.56;5106548;28;20036;-67
2021/09/07 02:55:45;;;;;;;4.82;2.80;;;;;;;10.77;94.92;95914.94;5086575;28;20052;-68
2021/09/07 02:58:14;;;;;;;5.30;3.17;;;;;;;10.87;94.54;95928.34;5086274;28;20478;-67
2021/09/07 03:00:41;;;;;;;7.18;3.08;;;;;;;10.84;94.21;95920.13;5086283;28;20056;-67
2021/09/07 03:03:10;;;;;;;5.07;2.40;;;;;;;10.64;94.63;95921.00;5087633;28;20046;-67
2021/09/07 03:05:38;;;;;;;4.57;3.28;;;;;;;10.59;95.41;95917.38;5087360;28;20081;-67
2021/09/07 03:08:05;;;;;;;11.45;3.10;;;;;;;10.49;95.30;95905.59;5085714;28;20036;-68
2021/09/07 03:10:34;;;;;;;5.28;3.08;;;;;;;10.54;95.38;95922.44;5086939;28;20793;-68
2021/09/07 03:13:01;;;;;;;5.32;3.30;;;;;;;10.52;95.11;95917.41;5087442;28;20036;-68
2021/09/07 03:15:29;;;;;;;4.32;2.90;;;;;;;10.49;94.97;95923.81;5094868;28;20039;-68
2021/09/07 03:17:56;;;;;;;4.20;2.78;;;;;;;10.38;95.04;95895.78;5106185;28;20122;-68
2021/09/07 03:20:23;;;;;;;4.57;2.67;;;;;;;10.47;94.57;95915.41;5107332;28;20101;-68
2021/09/07 03:22:51;;;;;;;5.63;3.67;;;;;;;10.42;95.04;95909.22;5102399;28;20083;-68
2021/09/07 03:25:18;;;;;;;4.75;2.47;;;;;;;10.37;96.14;95917.66;5087107;28;20412;-69
2021/09/07 03:27:47;;;;;;;5.50;3.05;;;;;;;10.41;96.13;95911.03;5086668;28;20052;-67
2021/09/07 03:30:14;;;;;;;3.38;2.53;;;;;;;10.26;97.14;95897.38;5103953;28;20057;-67
2021/09/07 03:32:43;;;;;;;4.35;3.15;;;;;;;10.24;98.07;95912.41;5084264;28;20048;-67
2021/09/07 03:35:10;;;;;;;4.47;3.28;;;;;;;10.18;98.22;95913.22;5107031;28;20382;-67
2021/09/07 03:37:41;;;;;;;4.32;2.70;;;;;;;10.13;98.05;95904.19;5107164;28;20492;-67
2021/09/07 03:40:09;;;;;;;4.38;3.00;;;;;;;10.02;98.85;95899.59;5092413;28;20123;-67
2021/09/07 03:42:37;;;;;;;4.03;2.55;;;;;;;10.02;98.99;95907.41;5088728;28;20130;-67
2021/09/07 03:45:07;;;;;;;3.67;2.53;;;;;;;9.97;98.69;95909.03;5105036;28;20066;-67
2021/09/07 03:47:35;;;;;;;4.10;2.78;;;;;;;9.86;99.43;95893.00;5100798;28;20123;-67
2021/09/07 03:50:02;;;;;;;4.70;2.92;;;;;;;9.98;99.33;95911.44;5085997;28;20040;-67
2021/09/07 03:52:29;;;;;;;3.78;2.65;;;;;;;10.05;98.37;95916.63;5085523;28;20459;-68
2021/09/07 03:54:57;;;;;;;3.70;2.47;;;;;;;10.01;98.71;95916.25;5085651;28;20047;-67
2021/09/07 03:57:24;;;;;;;3.55;2.25;;;;;;;9.97;98.76;95915.03;5086118;28;20036;-68
2021/09/07 03:59:51;;;;;;;6.35;2.67;;;;;;;10.04;98.37;95910.63;5104279;28;20044;-67
2021/09/07 04:02:20;;;;;;;4.70;2.85;;;;;;;10.14;97.46;95911.03;5106455;28;20031;-68
2021/09/07 04:04:47;;;;;;;5.75;2.80;;;;;;;10.15;96.81;95919.63;5086494;28;20051;-68
2021/09/07 04:07:14;;;;;;;3.33;2.17;;;;;;;10.13;96.50;95914.63;5101743;28;20492;-67
2021/09/07 04:09:42;;;;;;;4.30;2.47;;;;;;;10.16;96.35;95918.63;5086833;28;20068;-67
2021/09/07 04:12:11;;;;;;;4.55;2.90;;;;;;;10.22;95.09;95928.22;5086624;28;20024;-68
2021/09/07 04:14:39;;;;;;;4.35;2.53;;;;;;;10.23;94.74;95923.84;5086422;28;20098;-67
2021/09/07 04:17:09;;;;;;;3.92;2.45;;;;;;;10.27;93.96;95925.81;5084780;28;20064;-67
2021/09/07 04:19:36;;;;;;;3.15;2.22;;;;;;;10.29;93.12;95928.22;5084517;28;20056;-67
2021/09/07 04:22:05;;;;;;;5.32;2.90;;;;;;;10.25;92.80;95932.25;5088284;28;20035;-67
2021/09/07 04:24:32;;;;;;;3.83;2.80;;;;;;;10.20;92.52;95924.25;5086418;28;20062;-67
2021/09/07 04:26:58;;;;;;;3.75;2.58;;;;;;;10.25;92.31;95933.03;5086384;28;20505;-67
2021/09/07 04:29:25;;;;;;;10.18;2.70;;;;;;;10.25;92.42;95932.25;5085787;28;20502;-67
2021/09/07 04:31:52;;;;;;;3.55;2.40;;;;;;;10.28;92.59;95939.63;5085660;28;20040;-68
2021/09/07 04:34:19;;;;;;;4.72;2.58;;;;;;;10.29;92.81;95938.66;5085271;28;20043;-68
2021/09/07 04:36:46;;;;;;;3.15;1.88;;;;;;;10.31;93.05;95937.47;5084215;28;20768;-67
2021/09/07 04:39:13;;;;;;;3.78;2.65;;;;;;;10.17;95.86;95935.03;5089453;28;20055;-68
2021/09/07 04:41:39;;;;;;;3.85;2.47;;;;;;;10.23;96.19;95944.66;5089914;28;20054;-68
2021/09/07 04:44:07;;;;;;;4.68;2.95;;;;;;;10.25;96.48;95945.28;5083043;28;20438;-67
2021/09/07 04:46:35;;;;;;;2.83;1.95;;;;;;;10.28;96.41;95942.25;5083159;28;20028;-67
2021/09/07 04:49:01;;;;;;;3.83;2.20;;;;;;;10.33;96.71;95939.88;5083341;28;20044;-67
2021/09/07 04:51:28;;;;;;;4.40;1.90;;;;;;;10.29;97.44;95942.03;5084409;28;20039;-68
2021/09/07 04:53:57;;;;;;;3.88;2.28;;;;;;;10.36;97.65;95947.28;5085685;28;20489;-68
2021/09/07 04:56:24;;;;;;;2.72;1.88;;;;;;;10.42;98.53;95953.50;5086364;28;20059;-68
2021/09/07 04:58:50;;;;;;;5.07;2.45;;;;;;;10.48;98.83;95948.28;5086180;28;20036;-68
2021/09/07 05:01:18;;;;;;;7.15;3.03;;;;;;;10.60;98.40;95950.25;5082599;28;20054;-68
2021/09/07 05:03:46;;;;;;;6.95;3.03;;;;;;;10.59;99.11;95943.44;5085688;28;20067;-68
2021/09/07 05:06:13;;;;;;;3.45;2.65;;;;;;;10.73;99.62;95955.44;5091881;28;20040;-68
2021/09/07 05:08:40;;;;;;;3.63;2.08;;;;;;;10.75;100.00;95940.41;5092688;28;20394;-68
2021/09/07 05:11:06;;;;;;;3.38;1.77;;;;;;;10.86;100.00;95949.41;5085859;28;20053;-68
2021/09/07 05:13:33;;;;;;;3.60;2.38;;;;;;;11.00;100.00;95960.59;5086506;28;20503;-68
2021/09/07 05:16:00;;;;;;;3.28;1.95;;;;;;;11.12;100.00;95948.50;5106134;28;20039;-68
2021/09/07 05:18:27;;;;;;;2.22;1.75;;;;;;;11.29;100.00;95948.84;5104825;28;20048;-68
2021/09/07 05:20:54;;;;;;;5.63;2.42;;;;;;;11.50;100.00;95970.41;5098854;28;20066;-67
2021/09/07 05:23:20;;;;;;;2.92;1.85;;;;;;;11.65;100.00;95963.13;5092446;28;20060;-68
2021/09/07 05:25:47;;;;;;;5.10;2.50;;;;;;;11.78;100.00;95962.25;5098766;28;20112;-68
2021/09/07 05:28:14;;;;;;;2.90;1.73;;;;;;;11.95;99.26;95963.34;5086605;28;20075;-67
2021/09/07 05:30:42;;;;;;;5.00;1.85;;;;;;;12.14;97.66;95963.44;5085894;28;20051;-68
2021/09/07 05:33:08;;;;;;;2.95;2.35;;;;;;;12.27;97.52;95965.94;5084077;28;20052;-68
2021/09/07 05:35:35;;;;;;;2.88;1.70;;;;;;;12.42;96.46;95955.97;5085455;28;20031;-68
2021/09/07 05:38:04;;;;;;;2.50;1.70;;;;;;;12.52;96.11;95957.31;5086366;28;20097;-67
2021/09/07 05:40:31;;;;;;;2.72;2.00;;;;;;;12.71;95.31;95961.53;5102397;28;20044;-69
2021/09/07 05:42:58;;;;;;;1.90;1.33;;;;;;;12.86;94.34;95968.25;5088642;28;20036;-68
2021/09/07 05:45:25;;;;;;;2.85;1.67;;;;;;;12.88;93.41;95942.66;5089146;28;20694;-68
2021/09/07 05:47:52;;;;;;;4.30;1.88;;;;;;;13.06;92.72;95947.88;5087289;28;20690;-68
2021/09/07 05:50:18;;;;;;;2.90;2.00;;;;;;;13.24;91.99;95964.59;5087649;28;20037;-68
2021/09/07 05:52:46;;;;;;;3.33;2.08;;;;;;;13.28;91.92;95953.47;5089098;28;20036;-67
2021/09/07 05:55:14;;;;;;;2.25;1.85;;;;;;;13.45;90.58;95964.16;5089731;28;20034;-68
2021/09/07 05:57:41;;;;;;;3.38;2.50;;;;;;;13.55;90.45;95958.38;5090658;28;20416;-68
2021/09/07 06:00:10;;;;;;;4.43;2.97;;;;;;;13.63;89.40;95963.34;5091204;28;20048;-68
2021/09/07 06:02:38;;;;;;;5.35;2.50;;;;;;;13.66;88.53;95952.41;5092502;28;20068;-67
2021/09/07 06:05:05;;;;;;;3.85;2.53;;;;;;;13.79;88.47;95967.13;5087179;28;20047;-68
2021/09/07 06:07:32;;;;;;;5.50;3.85;;;;;;;13.90;88.23;95963.75;5090413;28;20920;-68
2021/09/07 06:09:59;;;;;;;6.50;3.47;;;;;;;13.97;86.91;95963.63;5087395;28;20039;-69
2021/09/07 06:12:26;;;;;;;4.30;3.03;;;;;;;13.91;86.93;95944.38;5088351;28;20055;-69
2021/09/07 06:14:53;;;;;;;6.75;3.60;;;;;;;14.19;86.75;95961.31;5099385;28;20044;-68
2021/09/07 06:17:19;;;;;;;4.82;3.17;;;;;;;14.29;86.24;95955.50;5087084;28;20106;-68
2021/09/07 06:19:46;;;;;;;5.85;3.50;;;;;;;14.40;86.70;95961.78;5091628;28;20052;-68
2021/09/07 06:22:13;;;;;;;10.50;3.65;;;;;;;14.47;85.28;95949.38;5087877;28;20040;-68
2021/09/07 06:24:40;;;;;;;5.60;3.30;;;;;;;14.62;84.26;95960.25;5107984;28;20047;-67
2021/09/07 06:27:06;;;;;;;3.10;2.38;;;;;;;14.73;82.29;95956.00;5100514;28;21132;-68
2021/09/07 06:29:33;;;;;;;4.70;3.22;;;;;;;14.83;82.50;95955.44;5097084;28;20417;-68
2021/09/07 06:32:00;;;;;;;4.47;2.70;;;;;;;14.94;81.54;95967.72;5090696;28;20168;-67
2021/09/07 06:34:27;;;;;;;3.63;2.70;;;;;;;14.99;81.63;95959.97;5080239;28;20059;-68
2021/09/07 06:36:55;;;;;;;7.10;3.28;;;;;;;15.18;82.06;95962.44;5089360;28;20044;-68
2021/09/07 06:39:23;;;;;;;5.53;3.63;;;;;;;15.32;80.66;95963.75;5092660;28;20043;-67
2021/09/07 06:41:50;;;;;;;3.97;3.05;;;;;;;15.46;80.99;95964.28;5087073;28;20097;-67
2021/09/07 06:44:17;;;;;;;4.40;2.88;;;;;;;15.49;78.72;95964.63;5086767;28;20520;-67
2021/09/07 06:46:43;;;;;;;5.35;3.40;;;;;;;15.45;77.87;95962.72;5086812;28;20051;-67
2021/09/07 06:49:10;;;;;;;4.70;2.67;;;;;;;15.62;78.11;95957.50;5082037;28;20134;-67
2021/09/07 06:51:37;;;;;;;4.15;2.60;;;;;;;15.85;77.71;95965.31;5086531;28;20059;-68
2021/09/07 06:54:04;;;;;;;8.85;5.50;;;;;;;15.92;76.16;95964.34;5086234;28;20121;-67
2021/09/07 06:56:31;;;;;;;4.30;2.55;;;;;;;15.88;75.08;95950.09;5097796;28;20055;-68
2021/09/07 06:58:58;;;;;;;3.20;2.38;;;;;;;16.06;75.23;95963.00;5086887;28;20044;-68
2021/09/07 07:01:25;;;;;;;4.57;2.72;;;;;;;16.23;74.88;95963.84;5089239;28;20449;-68
2021/09/07 07:03:52;;;;;;;3.38;2.60;;;;;;;16.36;74.38;95964.56;5090933;28;20070;-67
2021/09/07 07:06:19;;;;;;;4.75;3.28;;;;;;;16.53;73.94;95973.25;5087944;28;20455;-68
2021/09/07 07:08:46;;;;;;;2.78;2.00;;;;;;;16.46;73.00;95951.56;5090897;28;20492;-67
2021/09/07 07:11:13;;;;;;;6.88;3.22;;;;;;;16.49;72.38;95961.59;5082930;28;20650;-68
2021/09/07 07:13:40;;;;;;;3.53;2.70;;;;;;;16.69;72.31;95960.28;5088752;28;20124;-67
2021/09/07 07:16:06;;;;;;;6.18;2.75;;;;;;;16.78;70.52;95964.94;5095481;28;20044;-66
2021/09/07 07:18:33;;;;;;;4.72;2.22;;;;;;;16.84;69.63;95962.41;5090266;27;20059;-68
2021/09/07 07:21:00;;;;;;;4.72;2.58;;;;;;;17.00;69.10;95957.09;5092238;28;20044;-68
2021/09/07 07:23:27;;;;;;;4.18;2.72;;;;;;;17.07;68.00;95961.34;5097877;28;20066;-68
2021/09/07 07:25:54;;;;;;;3.25;2.15;;;;;;;17.11;69.17;95973.00;5104646;28;20047;-68
2021/09/07 07:28:21;;;;;;;4.55;2.63;;;;;;;17.29;68.66;95970.06;5101688;28;20048;-67
2021/09/07 07:30:48;;;;;;;4.38;1.95;;;;;;;17.59;66.95;95968.81;5091611;28;20043;-68
2021/09/07 07:33:14;;;;;;;8.43;2.35;;;;;;;17.67;64.50;95973.66;5090637;28;20581;-67
2021/09/07 07:35:42;;;;;;;2.22;2.03;;;;;;;17.77;66.24;95971.13;5091711;28;20044;-69
2021/09/07 07:38:09;;;;;;;5.90;2.63;;;;;;;17.90;65.99;95969.97;5091388;27;20060;-68
2021/09/07 07:40:37;;;;;;;3.60;2.70;;;;;;;17.93;66.41;95966.03;5091274;28;20084;-68
2021/09/07 07:43:04;;;;;;;3.05;1.75;;;;;;;18.01;62.51;95970.84;5091692;27;20089;-69
2021/09/07 07:45:31;;;;;;;2.42;1.92;;;;;;;17.81;61.81;95971.44;5086201;28;20051;-69
2021/09/07 07:47:58;;;;;;;5.70;3.42;;;;;;;17.92;61.51;95972.34;5084707;28;20051;-69
2021/09/07 07:50:25;;;;;;;3.45;1.85;;;;;;;18.17;61.42;95973.59;5085685;28;21987;-68
2021/09/07 07:52:51;;;;;;;2.80;1.50;;;;;;;18.14;58.74;95980.19;5084551;28;20048;-68
2021/09/07 07:55:18;;;;;;;9.95;5.95;;;;;;;18.27;59.28;95974.50;5085892;28;20047;-67
2021/09/07 07:57:45;;;;;;;3.05;1.55;;;;;;;18.44;60.50;95979.66;5088143;28;20048;-68
2021/09/07 08:00:12;;;;;;;2.75;1.40;;;;;;;18.39;57.80;95976.97;5085170;28;20814;-68
2021/09/07 08:02:39;;;;;;;2.17;1.58;;;;;;;18.34;60.34;95974.28;5084408;28;20048;-68
2021/09/07 08:05:11;;;;;;;3.63;1.83;;;;;;;18.46;58.72;95977.56;5085961;28;20048;-68
2021/09/07 08:07:40;;;;;;;1.73;1.30;;;;;;;18.64;57.93;95972.94;5085957;28;20051;-68
2021/09/07 08:10:08;;;;;;;3.13;2.03;;;;;;;18.65;55.54;95966.59;5084412;28;20040;-68
2021/09/07 08:12:35;;;;;;;2.15;1.65;;;;;;;18.79;54.68;95962.47;5086854;28;20064;-68
2021/09/07 08:15:03;;;;;;;2.63;1.77;;;;;;;18.96;55.82;95953.59;5087057;28;20063;-68
2021/09/07 08:17:30;;;;;;;2.85;1.58;;;;;;;19.27;56.33;95965.91;5087171;28;20040;-69
2021/09/07 08:19:57;;;;;;;1.40;1.02;;;;;;;19.40;55.24;95964.63;5085460;28;20059;-69
2021/09/07 08:22:23;;;;;;;1.58;1.30;;;;;;;19.37;54.03;95964.34;5087085;28;20044;-69
2021/09/07 08:24:50;;;;;;;2.40;1.13;;;;;;;19.45;53.57;95940.09;5095083;28;20040;-69
2021/09/07 08:27:17;;;;;;;2.67;1.65;;;;;;;19.42;50.20;95945.88;5091734;28;20051;-69
2021/09/07 08:29:44;;;;;;;3.08;1.40;;;;;;;19.36;51.36;95962.78;5094313;28;20044;-69
2021/09/07 08:32:11;;;;;;;6.75;2.70;;;;;;;19.46;52.89;95946.94;5094182;28;20048;-69
2021/09/07 08:34:37;;;;;;;2.95;1.25;;;;;;;19.76;52.96;95959.47;5092904;28;20040;-69
2021/09/07 08:37:06;;;;;;;1.42;0.90;;;;;;;19.90;50.16;95961.59;5093508;28;20408;-68
2021/09/07 08:39:33;;;;;;;2.20;1.30;;;;;;;19.78;50.29;95948.66;5093385;28;20051;-68
2021/09/07 08:42:00;;;;;;;1.80;1.10;;;;;;;20.08;48.53;95944.44;5092466;28;20449;-69
2021/09/07 08:44:27;;;;;;;1.23;0.82;;;;;;;20.21;50.15;95950.00;5085393;28;20040;-69
2021/09/07 08:46:54;;;;;;;1.85;1.10;;;;;;;20.20;49.84;95944.97;5086665;28;20044;-69
2021/09/07 08:49:21;;;;;;;1.50;1.10;;;;;;;20.57;47.48;95941.25;5087027;28;20129;-69
2021/09/07 08:51:48;;;;;;;1.60;1.20;;;;;;;20.57;47.33;95951.84;5086570;28;20059;-69
2021/09/07 08:54:15;;;;;;;2.65;1.20;;;;;;;21.01;47.57;95948.59;5086427;28;20048;-69
2021/09/07 08:56:42;;;;;;;3.00;1.60;;;;;;;21.33;46.27;95944.78;5089777;28;20039;-68
2021/09/07 08:59:10;;;;;;;2.05;1.33;;;;;;;21.37;45.95;95932.56;5094194;28;20036;-69
2021/09/07 09:01:38;;;;;;;3.20;0.95;;;;;;;21.66;44.71;95945.97;5093358;28;20098;-69
2021/09/07 09:04:24;;;;;;;6.00;2.13;;;;;;;21.33;43.70;95942.13;5092758;28;20067;-69
2021/09/07 09:06:51;;;;;;;2.13;1.00;;;;;;;21.65;45.73;95940.94;5093651;28;20516;-69
2021/09/07 09:09:18;;;;;;;1.85;1.13;;;;;;;21.55;44.06;95942.59;5087966;28;20040;-69
2021/09/07 09:11:53;;;;;;;1.65;1.10;;;;;;;21.37;44.80;95945.81;5086887;28;20523;-69
2021/09/07 09:14:30;;;;;;;1.95;1.20;;;;;;;21.43;43.06;95933.31;5090466;28;20042;-69
2021/09/07 09:16:57;;;;;;;4.75;1.42;;;;;;;22.06;44.15;95945.97;5090668;28;20565;-68
2021/09/07 09:19:24;;;;;;;2.28;1.15;;;;;;;21.68;42.14;95924.47;5090863;28;20044;-68
2021/09/07 09:21:51;;;;;;;1.73;0.80;;;;;;;21.53;42.87;95923.50;5088847;28;20035;-68
2021/09/07 09:24:19;;;;;;;2.20;1.10;;;;;;;21.45;42.71;95918.78;5090071;28;20036;-69
2021/09/07 09:26:53;;;;;;;2.15;1.30;;;;;;;20.99;44.46;95924.22;5090334;28;20578;-69
2021/09/07 09:29:31;;;;;;;2.65;1.58;;;;;;;21.16;46.83;95924.72;5090289;28;20051;-68
2021/09/07 09:31:59;;;;;;;1.80;1.10;;;;;;;21.04;46.21;95921.56;5100320;28;20043;-68
2021/09/07 09:34:27;;;;;;;1.42;0.95;;;;;;;21.16;44.49;95914.13;5109889;28;20045;-68
2021/09/07 09:37:05;;;;;;;2.90;1.27;;;;;;;21.43;43.96;95922.72;5105909;28;20061;-68
2021/09/07 09:39:42;;;;;;;2.40;1.60;;;;;;;21.39;44.99;95922.47;5099267;28;20504;-69
2021/09/07 09:42:23;;;;;;;2.47;1.48;;;;;;;21.41;45.36;95925.66;5099490;28;20044;-68
2021/09/07 09:45:03;;;;;;;16.85;1.85;;;;;;;21.23;44.07;95931.56;5108485;28;20046;-69
2021/09/07 09:47:39;;;;;;;2.63;1.40;;;;;;;21.14;45.64;95926.84;5099052;27;20044;-69
2021/09/07 09:50:07;;;;;;;2.28;1.60;;;;;;;21.05;42.62;95923.16;5089571;28;20048;-68
2021/09/07 09:52:37;;;;;;;2.58;1.42;;;;;;;20.84;44.15;95926.94;5089439;28;20513;-68
2021/09/07 09:55:06;;;;;;;3.47;1.40;;;;;;;20.20;44.93;95914.06;5094847;28;20058;-68
2021/09/07 09:57:35;;;;;;;2.30;1.25;;;;;;;20.50;45.69;95922.22;5108888;28;20063;-69
2021/09/07 10:00:05;;;;;;;2.28;1.30;;;;;;;20.65;45.74;95922.19;5109389;28;20559;-68
2021/09/07 10:02:38;;;;;;;2.42;1.50;;;;;;;20.79;46.23;95923.22;5109238;28;20039;-68
2021/09/07 10:05:06;;;;;;;2.50;1.48;;;;;;;20.56;44.33;95910.56;5092566;28;20043;-68
2021/09/07 10:07:34;;;;;;;1.73;1.23;;;;;;;20.78;45.57;95908.41;5087807;28;20044;-68
2021/09/07 10:10:01;;;;;;;2.33;1.58;;;;;;;20.61;42.78;95913.22;5088161;28;20113;-68
2021/09/07 10:12:54;;;;;;;2.33;1.40;;;;;;;20.98;44.69;95912.06;5092466;28;20584;-68
2021/09/07 10:15:29;;;;;;;1.48;0.95;;;;;;;21.61;43.75;95908.06;5089037;28;20090;-68
2021/09/07 10:18:29;;;;;;;1.70;1.17;;;;;;;22.43;40.74;95907.47;5089302;28;20287;-68
2021/09/07 10:24:02;;;;;;;2.28;0.82;;;;;;;23.43;39.13;95897.88;5050509;28;20526;-68
2021/09/07 10:26:41;;;;;;;1.67;1.02;;;;;;;23.46;36.30;95886.69;5093400;28;20101;-68
2021/09/07 10:29:14;;;;;;;1.70;1.20;;;;;;;23.50;37.75;95894.06;5107804;28;20043;-69
2021/09/07 10:31:42;;;;;;;2.17;1.45;;;;;;;23.83;38.47;95894.94;5108605;28;20445;-68
2021/09/07 10:34:12;;;;;;;2.60;1.70;;;;;;;24.65;35.68;95898.13;5108785;28;20488;-69
2021/09/07 10:37:08;;;;;;;2.17;1.05;;;;;;;24.24;33.07;95889.75;5102029;28;20050;-68
2021/09/07 10:39:36;;;;;;;2.95;1.50;;;;;;;23.42;37.77;95896.28;5099298;28;20501;-69
2021/09/07 10:42:08;;;;;;;3.35;1.23;;;;;;;23.12;36.74;95896.69;5090002;28;20047;-68
2021/09/07 10:44:38;;;;;;;2.05;1.35;;;;;;;23.23;35.89;95898.16;5108735;28;20497;-69
2021/09/07 10:47:11;;;;;;;3.85;1.55;;;;;;;23.87;36.69;95895.16;5108610;28;20043;-69
2021/09/07 10:49:50;;;;;;;1.20;0.88;;;;;;;24.60;34.21;95891.81;5108567;28;22294;-68
2021/09/07 10:52:33;;;;;;;2.35;1.38;;;;;;;24.87;32.77;95868.94;5085740;28;20054;-68
2021/09/07 10:55:09;;;;;;;1.73;1.10;;;;;;;24.85;33.83;95886.31;5087914;28;20040;-68
2021/09/07 10:57:53;;;;;;;2.13;1.10;;;;;;;23.78;33.81;95887.78;5088507;28;20638;-68
2021/09/07 11:00:19;;;;;;;1.35;1.10;;;;;;;24.22;37.29;95880.50;5088135;28;20036;-68
2021/09/07 11:02:50;;;;;;;1.25;0.88;;;;;;;24.03;35.54;95888.53;5097895;28;20049;-68
2021/09/07 11:05:17;;;;;;;1.48;1.20;;;;;;;23.65;35.84;95883.22;5106334;28;20082;-68
2021/09/07 11:07:47;;;;;;;2.15;1.50;;;;;;;22.81;36.36;95881.84;5108143;28;20047;-68
2021/09/07 11:10:16;;;;;;;1.90;1.20;;;;;;;23.44;35.11;95872.06;5091519;28;20504;-68
2021/09/07 11:12:51;;;;;;;1.45;1.23;;;;;;;23.98;36.24;95876.06;5086799;28;20048;-68
2021/09/07 11:15:23;;;;;;;2.95;1.20;;;;;;;23.93;34.89;95880.69;5102168;28;20039;-68
2021/09/07 11:17:57;;;;;;;1.52;0.90;;;;;;;24.12;34.53;95876.13;5108065;28;20097;-68
2021/09/07 11:20:26;;;;;;;1.42;1.00;;;;;;;24.21;33.34;95868.25;5107655;28;20058;-68
2021/09/07 11:22:55;;;;;;;1.67;1.10;;;;;;;24.99;30.54;95865.78;5102543;28;20044;-68
2021/09/07 11:25:23;;;;;;;1.92;1.25;;;;;;;25.49;30.19;95867.69;5087461;28;20036;-68
2021/09/07 11:28:02;;;;;;;2.28;1.05;;;;;;;26.35;30.26;95866.75;5087420;28;20516;-68
2021/09/07 11:30:30;;;;;;;1.85;1.25;;;;;;;25.93;31.53;95871.53;5087229;28;20089;-68
2021/09/07 11:33:03;;;;;;;2.25;1.02;;;;;;;26.11;32.07;95859.84;5085716;28;20047;-68
2021/09/07 11:35:34;;;;;;;1.25;0.75;;;;;;;26.45;29.56;95861.13;5087256;28;20047;-68
2021/09/07 11:38:03;;;;;;;1.55;0.85;;;;;;;26.24;30.97;95857.41;5095623;28;20047;-77
2021/09/07 11:40:32;;;;;;;1.35;0.88;;;;;;;26.34;30.17;95859.81;5100379;28;20477;-78
2021/09/07 11:43:01;;;;;;;1.45;0.70;;;;;;;26.17;31.92;95857.06;5095366;28;20117;-77